createdAt,value
2018-07-28T00:00:29.419Z,971.62
2018-07-28T00:01:29.667Z,971.56
2018-07-28T00:02:29.911Z,971.56
2018-07-28T00:03:30.156Z,971.52
2018-07-28T00:04:30.405Z,971.54
2018-07-28T00:05:30.648Z,971.52
2018-07-28T00:06:30.894Z,971.49
2018-07-28T00:07:31.141Z,971.50
2018-07-28T00:08:31.387Z,971.50
2018-07-28T00:09:31.633Z,971.49
2018-07-28T00:10:31.880Z,971.48
2018-07-28T00:11:32.128Z,971.55
2018-07-28T00:12:32.375Z,971.51
2018-07-28T00:13:32.620Z,971.47
2018-07-28T00:14:32.866Z,971.48
2018-07-28T00:15:33.116Z,971.45
2018-07-28T00:16:33.372Z,971.46
2018-07-28T00:17:33.605Z,971.44
2018-07-28T00:18:33.851Z,971.41
2018-07-28T00:19:34.096Z,971.44
2018-07-28T00:20:34.342Z,971.45
2018-07-28T00:21:34.587Z,971.46
2018-07-28T00:22:34.831Z,971.47
2018-07-28T00:23:35.080Z,971.47
2018-07-28T00:24:35.322Z,971.43
2018-07-28T00:25:35.570Z,971.48
2018-07-28T00:26:35.809Z,971.46
2018-07-28T00:27:36.056Z,971.46
2018-07-28T00:28:36.302Z,971.46
2018-07-28T00:29:36.548Z,971.45
2018-07-28T00:30:36.793Z,971.44
2018-07-28T00:31:37.039Z,971.39
2018-07-28T00:32:37.284Z,971.41
2018-07-28T00:33:37.534Z,971.37
2018-07-28T00:34:37.779Z,971.34
2018-07-28T00:35:38.026Z,971.36
2018-07-28T00:36:38.271Z,971.31
2018-07-28T00:37:38.518Z,971.31
2018-07-28T00:38:38.765Z,971.25
2018-07-28T00:39:39.013Z,971.28
2018-07-28T00:40:39.257Z,971.22
2018-07-28T00:41:39.503Z,971.21
2018-07-28T00:42:39.749Z,971.20
2018-07-28T00:43:39.995Z,971.20
2018-07-28T00:44:40.241Z,971.18
2018-07-28T00:45:40.489Z,971.16
2018-07-28T00:46:40.733Z,971.16
2018-07-28T00:47:40.979Z,971.17
2018-07-28T00:48:41.226Z,971.15
2018-07-28T00:49:41.469Z,971.14
2018-07-28T00:50:41.716Z,971.12
2018-07-28T00:51:41.962Z,971.13
2018-07-28T00:52:42.208Z,971.10
2018-07-28T00:53:42.455Z,971.10
2018-07-28T00:54:42.698Z,971.09
2018-07-28T00:55:42.943Z,971.06
2018-07-28T00:56:43.190Z,971.11
2018-07-28T00:57:43.435Z,971.08
2018-07-28T00:58:43.681Z,971.10
2018-07-28T00:59:43.929Z,971.08
2018-07-28T01:00:44.173Z,971.08
2018-07-28T01:01:44.418Z,971.02
2018-07-28T01:02:44.662Z,971.03
2018-07-28T01:03:44.906Z,970.99
2018-07-28T01:04:45.152Z,970.98
2018-07-28T01:05:45.396Z,970.98
2018-07-28T01:06:45.640Z,970.97
2018-07-28T01:07:45.889Z,970.96
2018-07-28T01:08:46.131Z,970.94
2018-07-28T01:09:46.375Z,970.94
2018-07-28T01:10:46.620Z,970.90
2018-07-28T01:11:46.865Z,970.91
2018-07-28T01:12:47.112Z,970.90
2018-07-28T01:13:47.357Z,970.88
2018-07-28T01:14:47.601Z,970.90
2018-07-28T01:15:47.846Z,970.89
2018-07-28T01:16:48.092Z,970.91
2018-07-28T01:17:48.336Z,970.90
2018-07-28T01:18:48.582Z,970.89
2018-07-28T01:19:48.832Z,970.89
2018-07-28T01:20:49.071Z,970.85
2018-07-28T01:21:49.316Z,970.88
2018-07-28T01:22:49.560Z,970.84
2018-07-28T01:23:49.805Z,970.83
2018-07-28T01:24:50.053Z,970.85
2018-07-28T01:25:50.302Z,970.87
2018-07-28T01:26:50.583Z,970.85
2018-07-28T01:27:50.788Z,970.87
2018-07-28T01:28:51.036Z,970.87
2018-07-28T01:29:51.283Z,970.84
2018-07-28T01:30:51.527Z,970.86
2018-07-28T01:31:51.773Z,970.83
2018-07-28T01:32:52.020Z,970.81
2018-07-28T01:33:52.265Z,970.79
2018-07-28T01:34:52.510Z,970.78
2018-07-28T01:35:52.755Z,970.76
2018-07-28T01:36:53.001Z,970.72
2018-07-28T01:37:53.249Z,970.75
2018-07-28T01:38:53.492Z,970.74
2018-07-28T01:39:53.739Z,970.73
2018-07-28T01:40:53.982Z,970.76
2018-07-28T01:41:54.229Z,970.72
2018-07-28T01:42:54.476Z,970.71
2018-07-28T01:43:54.720Z,970.71
2018-07-28T01:44:54.964Z,970.70
2018-07-28T01:45:55.209Z,970.72
2018-07-28T01:46:55.455Z,970.76
2018-07-28T01:47:55.700Z,970.74
2018-07-28T01:48:55.946Z,970.74
2018-07-28T01:49:56.192Z,970.73
2018-07-28T01:50:56.437Z,970.71
2018-07-28T01:51:56.685Z,970.69
2018-07-28T01:52:56.933Z,970.71
2018-07-28T01:53:57.176Z,970.73
2018-07-28T01:54:57.421Z,970.68
2018-07-28T01:55:57.667Z,970.69
2018-07-28T01:56:57.912Z,970.69
2018-07-28T01:57:58.159Z,970.67
2018-07-28T01:58:58.404Z,970.66
2018-07-28T01:59:58.652Z,970.63
2018-07-28T02:00:58.896Z,970.64
2018-07-28T02:01:59.140Z,970.65
2018-07-28T02:02:59.385Z,970.61
2018-07-28T02:03:59.629Z,970.57
2018-07-28T02:04:59.875Z,970.51
2018-07-28T02:06:00.121Z,970.50
2018-07-28T02:07:00.365Z,970.44
2018-07-28T02:08:00.616Z,970.42
2018-07-28T02:09:00.853Z,970.42
2018-07-28T02:10:01.098Z,970.43
2018-07-28T02:11:01.341Z,970.38
2018-07-28T02:12:01.585Z,970.38
2018-07-28T02:13:01.831Z,970.35
2018-07-28T02:14:02.073Z,970.33
2018-07-28T02:15:02.320Z,970.30
2018-07-28T02:16:02.562Z,970.31
2018-07-28T02:17:02.807Z,970.30
2018-07-28T02:18:03.051Z,970.29
2018-07-28T02:19:03.294Z,970.30
2018-07-28T02:20:03.538Z,970.29
2018-07-28T02:21:03.783Z,970.30
2018-07-28T02:22:04.028Z,970.26
2018-07-28T02:23:04.269Z,970.27
2018-07-28T02:24:04.515Z,970.30
2018-07-28T02:25:04.760Z,970.26
2018-07-28T02:26:05.004Z,970.25
2018-07-28T02:27:05.248Z,970.24
2018-07-28T02:28:05.491Z,970.23
2018-07-28T02:29:05.736Z,970.22
2018-07-28T02:30:05.980Z,970.25
2018-07-28T02:31:06.224Z,970.20
2018-07-28T02:32:06.469Z,970.21
2018-07-28T02:33:06.713Z,970.23
2018-07-28T02:34:06.957Z,970.20
2018-07-28T02:35:07.205Z,970.22
2018-07-28T02:36:07.445Z,970.19
2018-07-28T02:37:07.689Z,970.24
2018-07-28T02:38:07.933Z,970.25
2018-07-28T02:39:08.177Z,970.24
2018-07-28T02:40:08.421Z,970.22
2018-07-28T02:41:08.668Z,970.19
2018-07-28T02:42:08.909Z,970.20
2018-07-28T02:43:09.153Z,970.16
2018-07-28T02:44:09.400Z,970.11
2018-07-28T02:45:09.643Z,970.11
2018-07-28T02:46:09.885Z,970.09
2018-07-28T02:47:10.129Z,970.08
2018-07-28T02:48:10.371Z,970.05
2018-07-28T02:49:10.618Z,970.08
2018-07-28T02:50:10.862Z,970.08
2018-07-28T02:51:11.106Z,970.07
2018-07-28T02:52:11.350Z,970.09
2018-07-28T02:53:11.592Z,970.09
2018-07-28T02:54:11.835Z,970.07
2018-07-28T02:55:12.081Z,970.07
2018-07-28T02:56:12.326Z,970.08
2018-07-28T02:57:12.569Z,970.03
2018-07-28T02:58:12.812Z,970.02
2018-07-28T02:59:13.057Z,970.02
2018-07-28T03:00:13.347Z,970.01
2018-07-28T03:01:13.544Z,970.00
2018-07-28T03:02:13.786Z,969.99
2018-07-28T03:03:14.031Z,970.03
2018-07-28T03:04:14.275Z,970.04
2018-07-28T03:05:14.520Z,970.01
2018-07-28T03:06:14.764Z,970.02
2018-07-28T03:07:15.009Z,970.03
2018-07-28T03:08:15.253Z,970.01
2018-07-28T03:09:15.497Z,970.00
2018-07-28T03:10:15.740Z,970.01
2018-07-28T03:11:15.985Z,970.00
2018-07-28T03:12:16.229Z,969.99
2018-07-28T03:13:16.472Z,969.99
2018-07-28T03:14:16.717Z,970.03
2018-07-28T03:15:16.960Z,970.01
2018-07-28T03:16:17.204Z,970.03
2018-07-28T03:17:17.448Z,970.01
2018-07-28T03:18:17.693Z,970.01
2018-07-28T03:19:17.937Z,970.00
2018-07-28T03:20:18.181Z,969.97
2018-07-28T03:21:18.425Z,969.99
2018-07-28T03:22:18.670Z,970.01
2018-07-28T03:23:18.918Z,970.04
2018-07-28T03:24:19.158Z,970.00
2018-07-28T03:25:19.405Z,970.01
2018-07-28T03:26:19.646Z,970.04
2018-07-28T03:27:19.890Z,970.00
2018-07-28T03:28:20.133Z,970.02
2018-07-28T03:29:20.376Z,970.05
2018-07-28T03:30:20.624Z,970.01
2018-07-28T03:31:20.864Z,969.98
2018-07-28T03:32:21.108Z,970.00
2018-07-28T03:33:21.352Z,969.97
2018-07-28T03:34:21.597Z,970.00
2018-07-28T03:35:21.841Z,970.02
2018-07-28T03:36:22.086Z,970.01
2018-07-28T03:37:22.329Z,969.99
2018-07-28T03:38:22.574Z,969.99
2018-07-28T03:39:22.819Z,969.98
2018-07-28T03:40:23.063Z,970.00
2018-07-28T03:41:23.310Z,970.00
2018-07-28T03:42:23.550Z,969.96
2018-07-28T03:43:23.796Z,969.97
2018-07-28T03:44:24.040Z,970.00
2018-07-28T03:45:24.283Z,969.97
2018-07-28T03:46:24.527Z,969.98
2018-07-28T03:47:24.773Z,969.99
2018-07-28T03:48:25.018Z,970.02
2018-07-28T03:49:25.265Z,970.00
2018-07-28T03:50:25.505Z,970.01
2018-07-28T03:51:25.753Z,969.99
2018-07-28T03:52:25.994Z,969.98
2018-07-28T03:53:26.238Z,969.94
2018-07-28T03:54:26.482Z,969.92
2018-07-28T03:55:26.728Z,969.90
2018-07-28T03:56:27.011Z,969.88
2018-07-28T03:57:27.213Z,969.92
2018-07-28T03:58:27.458Z,969.88
2018-07-28T03:59:27.702Z,969.89
2018-07-28T04:00:27.944Z,969.87
2018-07-28T04:01:28.187Z,969.90
2018-07-28T04:02:28.434Z,969.85
2018-07-28T04:03:28.676Z,969.83
2018-07-28T04:04:28.922Z,969.86
2018-07-28T04:05:29.165Z,969.85
2018-07-28T04:06:29.409Z,969.87
2018-07-28T04:07:29.654Z,969.86
2018-07-28T04:08:29.901Z,969.80
2018-07-28T04:09:30.141Z,969.77
2018-07-28T04:10:30.389Z,969.75
2018-07-28T04:11:30.630Z,969.74
2018-07-28T04:12:30.873Z,969.78
2018-07-28T04:13:31.117Z,969.75
2018-07-28T04:14:31.405Z,969.74
2018-07-28T04:15:31.609Z,969.76
2018-07-28T04:16:31.850Z,969.75
2018-07-28T04:17:32.094Z,969.76
2018-07-28T04:18:32.339Z,969.76
2018-07-28T04:19:32.584Z,969.74
2018-07-28T04:20:32.834Z,969.74
2018-07-28T04:21:33.073Z,969.76
2018-07-28T04:22:33.317Z,969.71
2018-07-28T04:23:33.561Z,969.76
2018-07-28T04:24:33.804Z,969.72
2018-07-28T04:25:34.049Z,969.73
2018-07-28T04:26:34.296Z,969.74
2018-07-28T04:27:34.537Z,969.78
2018-07-28T04:28:34.839Z,969.75
2018-07-28T04:29:35.062Z,969.71
2018-07-28T04:30:35.270Z,969.74
2018-07-28T04:31:35.515Z,969.73
2018-07-28T04:32:35.784Z,969.76
2018-07-28T04:33:36.002Z,969.80
2018-07-28T04:34:36.246Z,969.77
2018-07-28T04:35:36.491Z,969.78
2018-07-28T04:36:36.734Z,969.79
2018-07-28T04:37:36.982Z,969.76
2018-07-28T04:38:37.223Z,969.72
2018-07-28T04:39:37.468Z,969.78
2018-07-28T04:40:37.723Z,969.74
2018-07-28T04:41:37.956Z,969.76
2018-07-28T04:42:38.199Z,969.75
2018-07-28T04:43:38.445Z,969.72
2018-07-28T04:44:38.690Z,969.72
2018-07-28T04:45:38.932Z,969.75
2018-07-28T04:46:39.176Z,969.73
2018-07-28T04:47:39.422Z,969.74
2018-07-28T04:48:39.673Z,969.75
2018-07-28T04:49:39.909Z,969.74
2018-07-28T04:50:40.154Z,969.72
2018-07-28T04:51:40.399Z,969.72
2018-07-28T04:52:40.646Z,969.75
2018-07-28T04:53:40.888Z,969.76
2018-07-28T04:54:41.132Z,969.79
2018-07-28T04:55:41.377Z,969.75
2018-07-28T04:56:41.625Z,969.74
2018-07-28T04:57:41.866Z,969.76
2018-07-28T04:58:42.111Z,969.77
2018-07-28T04:59:42.356Z,969.78
2018-07-28T05:00:42.600Z,969.81
2018-07-28T05:01:42.845Z,969.79
2018-07-28T05:02:43.090Z,969.82
2018-07-28T05:03:43.338Z,969.82
2018-07-28T05:04:43.578Z,969.84
2018-07-28T05:05:43.823Z,969.81
2018-07-28T05:06:44.074Z,969.83
2018-07-28T05:07:44.323Z,969.82
2018-07-28T05:08:44.561Z,969.81
2018-07-28T05:09:44.804Z,969.81
2018-07-28T05:10:45.051Z,969.84
2018-07-28T05:11:45.293Z,969.85
2018-07-28T05:12:45.539Z,969.87
2018-07-28T05:13:45.782Z,969.87
2018-07-28T05:14:46.030Z,969.90
2018-07-28T05:15:46.272Z,969.88
2018-07-28T05:16:46.517Z,969.87
2018-07-28T05:17:46.761Z,969.88
2018-07-28T05:18:47.008Z,969.90
2018-07-28T05:19:47.254Z,969.92
2018-07-28T05:20:47.501Z,969.87
2018-07-28T05:21:47.743Z,969.87
2018-07-28T05:22:47.986Z,969.87
2018-07-28T05:23:48.273Z,969.84
2018-07-28T05:24:48.480Z,969.85
2018-07-28T05:25:48.724Z,969.81
2018-07-28T05:26:48.972Z,969.79
2018-07-28T05:27:49.216Z,969.75
2018-07-28T05:28:49.463Z,969.76
2018-07-28T05:29:49.708Z,969.77
2018-07-28T05:30:49.952Z,969.82
2018-07-28T05:31:50.198Z,969.83
2018-07-28T05:32:50.443Z,969.89
2018-07-28T05:33:50.687Z,969.93
2018-07-28T05:34:50.933Z,969.92
2018-07-28T05:35:51.179Z,969.93
2018-07-28T05:36:51.426Z,969.96
2018-07-28T05:37:51.671Z,969.95
2018-07-28T05:38:51.969Z,969.90
2018-07-28T05:39:52.164Z,969.87
2018-07-28T05:40:52.414Z,969.88
2018-07-28T05:41:52.655Z,969.88
2018-07-28T05:42:52.901Z,969.84
2018-07-28T05:43:53.147Z,969.86
2018-07-28T05:44:53.393Z,969.85
2018-07-28T05:45:53.640Z,969.82
2018-07-28T05:46:53.885Z,969.83
2018-07-28T05:47:54.130Z,969.82
2018-07-28T05:48:54.376Z,969.82
2018-07-28T05:49:54.622Z,969.78
2018-07-28T05:50:54.869Z,969.77
2018-07-28T05:51:55.116Z,969.73
2018-07-28T05:52:55.363Z,969.70
2018-07-28T05:53:55.608Z,969.71
2018-07-28T05:54:55.857Z,969.71
2018-07-28T05:55:56.103Z,969.67
2018-07-28T05:56:56.353Z,969.67
2018-07-28T05:57:56.599Z,969.73
2018-07-28T05:58:56.842Z,969.66
2018-07-28T05:59:57.089Z,969.66
2018-07-28T06:00:57.335Z,969.66
2018-07-28T06:01:57.582Z,969.65
2018-07-28T06:02:57.831Z,969.67
2018-07-28T06:03:58.076Z,969.66
2018-07-28T06:04:58.322Z,969.67
2018-07-28T06:05:58.568Z,969.63
2018-07-28T06:06:58.815Z,969.62
2018-07-28T06:07:59.061Z,969.62
2018-07-28T06:08:59.308Z,969.62
2018-07-28T06:09:59.555Z,969.62
2018-07-28T06:10:59.801Z,969.59
2018-07-28T06:12:00.049Z,969.57
2018-07-28T06:13:00.299Z,969.56
2018-07-28T06:14:00.543Z,969.55
2018-07-28T06:15:00.787Z,969.54
2018-07-28T06:16:01.036Z,969.55
2018-07-28T06:17:01.287Z,969.57
2018-07-28T06:18:01.528Z,969.57
2018-07-28T06:19:01.775Z,969.60
2018-07-28T06:20:02.020Z,969.64
2018-07-28T06:21:02.268Z,969.64
2018-07-28T06:22:02.583Z,969.61
2018-07-28T06:23:02.762Z,969.63
2018-07-28T06:24:03.012Z,969.61
2018-07-28T06:25:03.261Z,969.62
2018-07-28T06:26:03.687Z,969.59
2018-07-28T06:27:03.759Z,969.58
2018-07-28T06:28:04.007Z,969.59
2018-07-28T06:29:04.253Z,969.58
2018-07-28T06:30:04.502Z,969.60
2018-07-28T06:31:04.747Z,969.60
2018-07-28T06:32:04.998Z,969.60
2018-07-28T06:33:05.244Z,969.61
2018-07-28T06:34:05.492Z,969.58
2018-07-28T06:35:05.739Z,969.57
2018-07-28T06:36:05.991Z,969.58
2018-07-28T06:37:06.236Z,969.62
2018-07-28T06:38:06.481Z,969.63
2018-07-28T06:39:06.730Z,969.59
2018-07-28T06:40:06.976Z,969.61
2018-07-28T06:41:07.225Z,969.60
2018-07-28T06:42:07.472Z,969.61
2018-07-28T06:43:07.720Z,969.62
2018-07-28T06:44:07.969Z,969.58
2018-07-28T06:45:08.219Z,969.57
2018-07-28T06:46:08.467Z,969.58
2018-07-28T06:47:08.715Z,969.58
2018-07-28T06:48:08.967Z,969.57
2018-07-28T06:49:09.211Z,969.58
2018-07-28T06:50:09.458Z,969.61
2018-07-28T06:51:09.706Z,969.57
2018-07-28T06:52:09.955Z,969.56
2018-07-28T06:53:10.204Z,969.64
2018-07-28T06:54:10.451Z,969.62
2018-07-28T06:55:10.704Z,969.69
2018-07-28T06:56:10.951Z,969.65
2018-07-28T06:57:11.195Z,969.71
2018-07-28T06:58:11.442Z,969.67
2018-07-28T06:59:11.689Z,969.69
2018-07-28T07:00:11.998Z,969.68
2018-07-28T07:01:12.208Z,969.69
2018-07-28T07:02:12.456Z,969.72
2018-07-28T07:03:12.703Z,969.70
2018-07-28T07:04:12.952Z,969.69
2018-07-28T07:05:13.206Z,969.70
2018-07-28T07:06:13.447Z,969.71
2018-07-28T07:07:13.698Z,969.70
2018-07-28T07:08:13.946Z,969.68
2018-07-28T07:09:14.195Z,969.70
2018-07-28T07:10:14.443Z,969.66
2018-07-28T07:11:14.690Z,969.68
2018-07-28T07:12:14.939Z,969.66
2018-07-28T07:13:15.188Z,969.64
2018-07-28T07:14:15.436Z,969.64
2018-07-28T07:15:15.685Z,969.60
2018-07-28T07:16:15.933Z,969.63
2018-07-28T07:17:16.180Z,969.65
2018-07-28T07:18:16.428Z,969.67
2018-07-28T07:19:16.676Z,969.69
2018-07-28T07:20:16.925Z,969.70
2018-07-28T07:21:17.172Z,969.71
2018-07-28T07:22:17.420Z,969.68
2018-07-28T07:23:17.668Z,969.72
2018-07-28T07:24:17.915Z,969.73
2018-07-28T07:25:18.166Z,969.73
2018-07-28T07:26:18.414Z,969.73
2018-07-28T07:27:18.663Z,969.74
2018-07-28T07:28:18.913Z,969.76
2018-07-28T07:29:19.162Z,969.75
2018-07-28T07:30:19.419Z,969.72
2018-07-28T07:31:19.661Z,969.72
2018-07-28T07:32:19.909Z,969.69
2018-07-28T07:33:20.162Z,969.68
2018-07-28T07:34:20.411Z,969.70
2018-07-28T07:35:20.661Z,969.67
2018-07-28T07:36:20.910Z,969.71
2018-07-28T07:37:21.161Z,969.71
2018-07-28T07:38:21.411Z,969.67
2018-07-28T07:39:21.663Z,969.71
2018-07-28T07:40:21.912Z,969.71
2018-07-28T07:41:22.163Z,969.70
2018-07-28T07:42:22.412Z,969.69
2018-07-28T07:43:22.661Z,969.69
2018-07-28T07:44:22.934Z,969.65
2018-07-28T07:45:23.159Z,969.70
2018-07-28T07:46:23.409Z,969.71
2018-07-28T07:47:23.795Z,969.71
2018-07-28T07:48:23.910Z,969.74
2018-07-28T07:49:24.162Z,969.71
2018-07-28T07:50:24.415Z,969.75
2018-07-28T07:51:24.666Z,969.76
2018-07-28T07:52:24.918Z,969.76
2018-07-28T07:53:25.168Z,969.74
2018-07-28T07:54:25.420Z,969.76
2018-07-28T07:55:25.670Z,969.75
2018-07-28T07:56:25.923Z,969.75
2018-07-28T07:57:26.173Z,969.75
2018-07-28T07:58:26.429Z,969.78
2018-07-28T07:59:26.680Z,969.75
2018-07-28T08:00:26.928Z,969.75
2018-07-28T08:01:27.181Z,969.72
2018-07-28T08:02:27.435Z,969.70
2018-07-28T08:03:27.687Z,969.69
2018-07-28T08:04:27.938Z,969.69
2018-07-28T08:05:28.192Z,969.67
2018-07-28T08:06:28.484Z,969.74
2018-07-28T08:07:28.697Z,969.69
2018-07-28T08:08:28.949Z,969.74
2018-07-28T08:09:29.203Z,969.77
2018-07-28T08:10:29.453Z,969.77
2018-07-28T08:11:29.703Z,969.80
2018-07-28T08:12:29.956Z,969.80
2018-07-28T08:13:30.209Z,969.75
2018-07-28T08:14:30.464Z,969.77
2018-07-28T08:15:30.714Z,969.71
2018-07-28T08:16:30.967Z,969.70
2018-07-28T08:17:31.217Z,969.68
2018-07-28T08:18:31.470Z,969.68
2018-07-28T08:19:31.722Z,969.67
2018-07-28T08:20:31.974Z,969.71
2018-07-28T08:21:32.228Z,969.69
2018-07-28T08:22:32.482Z,969.66
2018-07-28T08:23:32.735Z,969.67
2018-07-28T08:24:32.987Z,969.71
2018-07-28T08:25:33.239Z,969.72
2018-07-28T08:26:33.493Z,969.77
2018-07-28T08:27:33.747Z,969.75
2018-07-28T08:28:33.998Z,969.73
2018-07-28T08:29:34.252Z,969.75
2018-07-28T08:30:34.504Z,969.71
2018-07-28T08:31:34.759Z,969.73
2018-07-28T08:32:35.013Z,969.72
2018-07-28T08:33:35.267Z,969.72
2018-07-28T08:34:35.518Z,969.74
2018-07-28T08:35:35.771Z,969.75
2018-07-28T08:36:36.025Z,969.76
2018-07-28T08:37:36.278Z,969.75
2018-07-28T08:38:36.530Z,969.71
2018-07-28T08:39:36.786Z,969.77
2018-07-28T08:40:37.039Z,969.73
2018-07-28T08:41:37.294Z,969.71
2018-07-28T08:42:37.545Z,969.73
2018-07-28T08:43:37.799Z,969.72
2018-07-28T08:44:38.053Z,969.75
2018-07-28T08:45:38.304Z,969.70
2018-07-28T08:46:38.558Z,969.78
2018-07-28T08:47:38.812Z,969.78
2018-07-28T08:48:39.065Z,969.76
2018-07-28T08:49:39.393Z,969.81
2018-07-28T08:50:39.575Z,969.82
2018-07-28T08:51:39.828Z,969.89
2018-07-28T08:52:40.084Z,969.85
2018-07-28T08:53:40.339Z,969.84
2018-07-28T08:54:40.625Z,969.84
2018-07-28T08:55:40.850Z,969.87
2018-07-28T08:56:41.107Z,969.88
2018-07-28T08:57:41.358Z,969.92
2018-07-28T08:58:41.613Z,970.01
2018-07-28T08:59:41.867Z,969.94
2018-07-28T09:00:42.124Z,969.92
2018-07-28T09:01:42.377Z,969.96
2018-07-28T09:02:42.633Z,970.00
2018-07-28T09:03:42.888Z,969.97
2018-07-28T09:04:43.144Z,969.93
2018-07-28T09:05:43.399Z,969.93
2018-07-28T09:06:43.657Z,969.96
2018-07-28T09:07:43.912Z,969.95
2018-07-28T09:08:44.168Z,969.95
2018-07-28T09:09:44.425Z,969.89
2018-07-28T09:10:44.765Z,969.93
2018-07-28T09:11:44.936Z,969.90
2018-07-28T09:12:45.193Z,969.87
2018-07-28T09:13:45.448Z,969.87
2018-07-28T09:14:45.704Z,969.69
2018-07-28T09:15:45.961Z,969.71
2018-07-28T09:16:46.218Z,969.66
2018-07-28T09:17:46.512Z,969.72
2018-07-28T09:18:46.728Z,969.73
2018-07-28T09:19:46.988Z,969.73
2018-07-28T09:20:47.242Z,969.73
2018-07-28T09:21:47.496Z,969.71
2018-07-28T09:22:47.752Z,969.75
2018-07-28T09:23:48.013Z,969.76
2018-07-28T09:24:48.264Z,969.66
2018-07-28T09:25:48.521Z,969.45
2018-07-28T09:26:48.777Z,969.48
2018-07-28T09:27:49.023Z,969.44
2018-07-28T09:28:49.274Z,969.44
2018-07-28T09:29:49.531Z,969.48
2018-07-28T09:30:49.787Z,969.40
2018-07-28T09:31:50.044Z,969.45
2018-07-28T09:32:50.299Z,969.49
2018-07-28T09:33:50.554Z,969.50
2018-07-28T09:34:50.809Z,969.52
2018-07-28T09:35:51.064Z,969.44
2018-07-28T09:36:51.370Z,969.55
2018-07-28T09:37:51.572Z,969.49
2018-07-28T09:38:51.824Z,969.52
2018-07-28T09:39:52.078Z,969.61
2018-07-28T09:40:52.336Z,969.55
2018-07-28T09:41:52.586Z,969.55
2018-07-28T09:42:52.838Z,969.60
2018-07-28T09:43:53.091Z,969.64
2018-07-28T09:44:53.345Z,969.65
2018-07-28T09:45:53.597Z,969.65
2018-07-28T09:46:53.895Z,969.64
2018-07-28T09:47:54.103Z,969.62
2018-07-28T09:48:54.356Z,969.66
2018-07-28T09:49:54.608Z,969.64
2018-07-28T09:50:54.861Z,969.67
2018-07-28T09:51:55.116Z,969.67
2018-07-28T09:52:55.368Z,969.60
2018-07-28T09:53:55.620Z,969.63
2018-07-28T09:54:55.872Z,969.71
2018-07-28T09:55:56.125Z,969.73
2018-07-28T09:56:56.380Z,969.64
2018-07-28T09:57:56.631Z,969.70
2018-07-28T09:58:56.891Z,969.73
2018-07-28T09:59:57.137Z,969.81
2018-07-28T10:00:57.390Z,969.74
2018-07-28T10:01:57.641Z,969.67
2018-07-28T10:02:57.894Z,969.76
2018-07-28T10:03:58.147Z,969.64
2018-07-28T10:04:58.399Z,969.67
2018-07-28T10:05:58.652Z,969.69
2018-07-28T10:06:58.904Z,969.66
2018-07-28T10:07:59.155Z,969.74
2018-07-28T10:08:59.407Z,969.77
2018-07-28T10:09:59.659Z,969.83
2018-07-28T10:10:59.910Z,970.06
2018-07-28T10:12:00.162Z,970.28
2018-07-28T10:13:00.415Z,970.66
2018-07-28T10:14:00.667Z,970.80
2018-07-28T10:15:00.921Z,970.52
2018-07-28T10:16:01.173Z,970.75
2018-07-28T10:17:01.425Z,970.89
2018-07-28T10:18:01.680Z,970.98
2018-07-28T10:19:01.932Z,971.04
2018-07-28T10:20:02.185Z,970.66
2018-07-28T10:21:02.437Z,970.96
2018-07-28T10:22:02.692Z,970.36
2018-07-28T10:23:02.950Z,970.94
2018-07-28T10:24:03.193Z,970.99
2018-07-28T10:25:03.447Z,970.72
2018-07-28T10:26:03.700Z,970.31
2018-07-28T10:27:03.953Z,970.50
2018-07-28T10:28:04.209Z,970.64
2018-07-28T10:29:04.464Z,970.68
2018-07-28T10:30:04.749Z,970.78
2018-07-28T10:31:04.975Z,970.84
2018-07-28T10:32:05.229Z,970.60
2018-07-28T10:33:05.489Z,970.54
2018-07-28T10:34:05.739Z,970.42
2018-07-28T10:35:05.994Z,970.13
2018-07-28T10:36:06.250Z,970.10
2018-07-28T10:37:06.505Z,969.97
2018-07-28T10:38:06.758Z,969.90
2018-07-28T10:39:07.016Z,969.90
2018-07-28T10:40:07.267Z,969.74
2018-07-28T10:41:07.519Z,969.94
2018-07-28T10:42:07.777Z,969.84
2018-07-28T10:43:08.033Z,970.04
2018-07-28T10:44:08.285Z,970.44
2018-07-28T10:45:08.537Z,970.29
2018-07-28T10:46:08.791Z,970.27
2018-07-28T10:47:09.042Z,970.21
2018-07-28T10:48:09.297Z,970.37
2018-07-28T10:49:09.552Z,970.31
2018-07-28T10:50:09.806Z,970.30
2018-07-28T10:51:10.060Z,970.35
2018-07-28T10:52:10.316Z,970.20
2018-07-28T10:53:10.567Z,970.29
2018-07-28T10:54:10.822Z,970.20
2018-07-28T10:55:11.077Z,970.11
2018-07-28T10:56:11.329Z,970.10
2018-07-28T10:57:11.585Z,970.06
2018-07-28T10:58:11.839Z,970.00
2018-07-28T10:59:12.090Z,969.96
2018-07-28T11:00:12.419Z,970.15
2018-07-28T11:01:12.599Z,970.10
2018-07-28T11:02:12.853Z,970.17
2018-07-28T11:03:13.106Z,970.08
2018-07-28T11:04:13.359Z,970.19
2018-07-28T11:05:13.614Z,970.13
2018-07-28T11:06:13.864Z,970.15
2018-07-28T11:07:14.118Z,970.14
2018-07-28T11:08:14.371Z,970.14
2018-07-28T11:09:14.681Z,970.07
2018-07-28T11:10:14.876Z,970.14
2018-07-28T11:11:15.128Z,970.11
2018-07-28T11:12:15.382Z,970.10
2018-07-28T11:13:15.634Z,970.18
2018-07-28T11:14:15.890Z,970.14
2018-07-28T11:15:16.141Z,970.22
2018-07-28T11:16:16.395Z,970.12
2018-07-28T11:17:16.647Z,970.09
2018-07-28T11:18:16.904Z,970.13
2018-07-28T11:19:17.157Z,970.12
2018-07-28T11:20:17.409Z,970.08
2018-07-28T11:21:17.658Z,970.15
2018-07-28T11:22:17.912Z,970.29
2018-07-28T11:23:18.166Z,970.32
2018-07-28T11:24:18.417Z,970.37
2018-07-28T11:25:18.669Z,970.40
2018-07-28T11:26:18.941Z,970.19
2018-07-28T11:27:19.174Z,970.32
2018-07-28T11:28:19.429Z,970.33
2018-07-28T11:29:19.682Z,970.51
2018-07-28T11:30:19.933Z,970.44
2018-07-28T11:31:20.187Z,970.35
2018-07-28T11:32:20.447Z,970.35
2018-07-28T11:33:20.710Z,970.28
2018-07-28T11:34:20.949Z,970.26
2018-07-28T11:35:21.204Z,970.32
2018-07-28T11:36:21.457Z,970.32
2018-07-28T11:37:21.710Z,970.35
2018-07-28T11:38:21.967Z,970.41
2018-07-28T11:39:22.217Z,970.45
2018-07-28T11:40:22.472Z,970.38
2018-07-28T11:41:22.725Z,970.40
2018-07-28T11:42:22.980Z,970.33
2018-07-28T11:43:23.233Z,970.28
2018-07-28T11:44:23.486Z,970.33
2018-07-28T11:45:23.740Z,970.29
2018-07-28T11:46:23.995Z,970.30
2018-07-28T11:47:24.249Z,970.16
2018-07-28T11:48:24.503Z,970.15
2018-07-28T11:49:24.757Z,970.17
2018-07-28T11:50:25.018Z,970.18
2018-07-28T11:51:25.366Z,970.11
2018-07-28T11:52:25.519Z,970.18
2018-07-28T11:53:25.773Z,970.18
2018-07-28T11:54:26.026Z,970.19
2018-07-28T11:55:26.297Z,970.21
2018-07-28T11:56:26.533Z,970.23
2018-07-28T11:57:26.787Z,970.22
2018-07-28T11:58:27.047Z,970.21
2018-07-28T11:59:27.291Z,970.19
2018-07-28T12:00:27.547Z,970.18
2018-07-28T12:01:27.796Z,970.18
2018-07-28T12:02:28.049Z,970.16
2018-07-28T12:03:28.302Z,970.17
2018-07-28T12:04:28.555Z,970.24
2018-07-28T12:05:28.812Z,970.19
2018-07-28T12:06:29.059Z,970.19
2018-07-28T12:07:29.311Z,970.18
2018-07-28T12:08:29.563Z,970.18
2018-07-28T12:09:29.815Z,970.20
2018-07-28T12:10:30.071Z,970.19
2018-07-28T12:11:30.324Z,970.12
2018-07-28T12:12:30.631Z,970.20
2018-07-28T12:13:30.828Z,970.19
2018-07-28T12:14:31.080Z,970.22
2018-07-28T12:15:31.338Z,970.16
2018-07-28T12:16:31.584Z,970.19
2018-07-28T12:17:31.835Z,970.24
2018-07-28T12:18:32.115Z,970.25
2018-07-28T12:19:32.339Z,970.27
2018-07-28T12:20:32.590Z,970.26
2018-07-28T12:21:32.843Z,970.35
2018-07-28T12:22:33.098Z,970.32
2018-07-28T12:23:33.346Z,970.25
2018-07-28T12:24:33.597Z,970.24
2018-07-28T12:25:33.856Z,970.26
2018-07-28T12:26:34.105Z,970.25
2018-07-28T12:27:34.354Z,970.21
2018-07-28T12:28:34.610Z,970.19
2018-07-28T12:29:34.858Z,970.20
2018-07-28T12:30:35.110Z,970.25
2018-07-28T12:31:35.362Z,970.24